Terminal Aerodrome Forecast
Issued by NWS Columbia, SC

Home | Current Version | Previous Version | Text Only | Print | Product List | Glossary On
Versions: 1 2 3 4 5 6 7 8 9 10 11 12 13 14 15 16 17 18 19 20 21 22 23 24 25 26 27 28 29 30 31 32 33 34 35 36 37 38 39 40 41 42 43
000
FTUS42 KCAE 270800 AAA
TAFAGS
TAF AMD
KAGS 270829Z 2708/2806 00000KT P6SM SCT003 SCT250
      TEMPO 2709/2713 1SM BR BKN003
     FM271300 VRB03KT P6SM SCT150
     FM272200 00000KT P6SM SCT120 BKN250=

USA.gov is the U.S. government's official web portal to all federal, state and local government web resources and services.